N6LC LEJR-LEIB

Flight info

Callsign N6LC
Flight time N/A
Altitude 40000
Route MGA N851 RUXET
Aircraft LJ35/M-SFGJRW/S

Departure

Time 2026-05-06 09:57
Airport Jerez Airport (LEJR)

Arrival

Time N/A
Airport Ibiza Airport (LEIB)
Time Latitude Longitude Altitude Speed Heading
2026-05-06 09:18 36.74752 -6.06309 86 ft 0 kts 335°
2026-05-06 09:49 36.74762 -6.06314 86 ft 5 kts 339°
2026-05-06 09:50 36.74795 -6.06287 88 ft 11 kts 93°
2026-05-06 09:50 36.74765 -6.06181 87 ft 15 kts 111°
2026-05-06 09:50 36.74692 -6.06117 90 ft 17 kts 203°
2026-05-06 09:50 36.74566 -6.06180 84 ft 22 kts 201°
2026-05-06 09:51 36.74410 -6.06256 84 ft 26 kts 200°
2026-05-06 09:51 36.74256 -6.06331 81 ft 24 kts 201°
2026-05-06 09:51 36.74119 -6.06398 81 ft 18 kts 201°
2026-05-06 09:51 36.73984 -6.06464 73 ft 23 kts 202°
2026-05-06 09:52 36.73838 -6.06536 71 ft 23 kts 201°
2026-05-06 09:52 36.73724 -6.06591 74 ft 17 kts 200°
2026-05-06 09:52 36.73620 -6.06643 69 ft 11 kts 202°
2026-05-06 09:52 36.73557 -6.06627 70 ft 8 kts 121°
2026-05-06 09:53 36.73551 -6.06607 71 ft 0 kts 110°
2026-05-06 09:55 36.73549 -6.06601 71 ft 2 kts 110°
2026-05-06 09:55 36.73534 -6.06552 68 ft 10 kts 111°
2026-05-06 09:55 36.73526 -6.06473 65 ft 7 kts 47°
2026-05-06 09:55 36.73536 -6.06466 68 ft 0 kts 22°
2026-05-06 09:57 36.73690 -6.06392 70 ft 71 kts 21°
2026-05-06 09:57 36.74439 -6.06019 161 ft 153 kts 22°
2026-05-06 09:57 36.75443 -6.05505 1229 ft 163 kts 21°
2026-05-06 09:58 36.76526 -6.04972 2404 ft 171 kts 20°
2026-05-06 09:58 36.77728 -6.04421 3286 ft 203 kts 20°
2026-05-06 09:58 36.79132 -6.03733 4164 ft 228 kts 22°
2026-05-06 09:58 36.80460 -6.02537 5210 ft 245 kts 44°
2026-05-06 09:59 36.81378 -6.00676 6279 ft 259 kts 73°
2026-05-06 09:59 36.81612 -5.98464 7591 ft 263 kts 87°
2026-05-06 09:59 36.81597 -5.96120 8562 ft 277 kts 91°
2026-05-06 09:59 36.81560 -5.93670 9562 ft 284 kts 90°
2026-05-06 10:00 36.81577 -5.91202 10683 ft 285 kts 89°
2026-05-06 10:00 36.81605 -5.88721 11700 ft 291 kts 89°
2026-05-06 10:00 36.81621 -5.86099 12320 ft 315 kts 90°
2026-05-06 10:00 36.81630 -5.83253 12930 ft 341 kts 90°
2026-05-06 10:01 36.81644 -5.80272 14004 ft 345 kts 90°
2026-05-06 10:01 36.81660 -5.77220 14909 ft 355 kts 90°
2026-05-06 10:01 36.81673 -5.74112 15850 ft 362 kts 90°
2026-05-06 10:01 36.81684 -5.70944 16773 ft 369 kts 90°
2026-05-06 10:02 36.81696 -5.67703 17672 ft 377 kts 90°
2026-05-06 10:02 36.81707 -5.64409 18522 ft 384 kts 90°
2026-05-06 10:02 36.81717 -5.61043 19295 ft 390 kts 90°
2026-05-06 10:02 36.81729 -5.57622 19946 ft 402 kts 90°
2026-05-06 10:03 36.81738 -5.54118 20756 ft 404 kts 91°
2026-05-06 10:03 36.81742 -5.50576 21488 ft 412 kts 91°
2026-05-06 10:03 36.81747 -5.46981 22221 ft 418 kts 91°
2026-05-06 10:03 36.81756 -5.43318 22932 ft 424 kts 91°
2026-05-06 10:04 36.81759 -5.39622 23611 ft 429 kts 92°
2026-05-06 10:04 36.81755 -5.35874 24152 ft 434 kts 92°
2026-05-06 10:04 36.81761 -5.32090 24691 ft 439 kts 92°
2026-05-06 10:04 36.81765 -5.28253 25352 ft 445 kts 92°
2026-05-06 10:05 36.81764 -5.24418 26198 ft 450 kts 92°
2026-05-06 10:05 36.81760 -5.20429 26966 ft 457 kts 92°
2026-05-06 10:05 36.81759 -5.16443 27728 ft 463 kts 92°
2026-05-06 10:05 36.81757 -5.12448 28453 ft 469 kts 92°
2026-05-06 10:06 36.81751 -5.08353 29150 ft 475 kts 92°
2026-05-06 10:06 36.81743 -5.04204 29825 ft 481 kts 92°
2026-05-06 10:06 36.81735 -5.00007 30426 ft 484 kts 92°
2026-05-06 10:06 36.81727 -4.95813 31274 ft 481 kts 92°
2026-05-06 10:07 36.81716 -4.91648 32096 ft 479 kts 92°
2026-05-06 10:07 36.81701 -4.87486 32890 ft 478 kts 93°
2026-05-06 10:07 36.81687 -4.83343 33693 ft 478 kts 93°
2026-05-06 10:07 36.81674 -4.79203 34409 ft 477 kts 93°
2026-05-06 10:08 36.81657 -4.75055 35027 ft 477 kts 93°
2026-05-06 10:08 36.81637 -4.70906 35634 ft 478 kts 93°
2026-05-06 10:08 36.81617 -4.66813 36205 ft 478 kts 93°
2026-05-06 10:08 36.81596 -4.62659 36774 ft 479 kts 93°
2026-05-06 10:09 36.81573 -4.58507 37353 ft 480 kts 93°
2026-05-06 10:09 36.81549 -4.54321 37861 ft 481 kts 94°
2026-05-06 10:09 36.81522 -4.50138 38377 ft 483 kts 93°
2026-05-06 10:09 36.81495 -4.45943 38868 ft 483 kts 94°
2026-05-06 10:10 36.81478 -4.43166 39149 ft 483 kts 93°
2026-05-06 10:10 36.81696 -4.38978 39645 ft 484 kts 84°
2026-05-06 10:10 36.81883 -4.37581 39819 ft 484 kts 80°